createdAt,value
2019-05-14T00:00:52.373Z,99350.96
2019-05-14T00:03:16.094Z,99342.88
2019-05-14T00:05:39.590Z,99347.81
2019-05-14T00:08:03.099Z,99345.45
2019-05-14T00:10:26.633Z,99342.89
2019-05-14T00:12:51.237Z,99343.88
2019-05-14T00:15:15.186Z,99339.91
2019-05-14T00:17:38.689Z,99329.07
2019-05-14T00:20:09.420Z,99329.86
2019-05-14T00:22:27.461Z,99329.45
2019-05-14T00:24:52.003Z,99319.80
2019-05-14T00:27:15.832Z,99316.22
2019-05-14T00:29:41.442Z,99317.61
2019-05-14T00:32:04.655Z,99323.45
2019-05-14T00:34:28.198Z,99316.21
2019-05-14T00:36:52.438Z,99318.32
2019-05-14T00:39:16.290Z,99318.88
2019-05-14T00:41:41.913Z,99312.28
2019-05-14T00:44:05.126Z,99309.47
2019-05-14T00:46:28.622Z,99304.76
2019-05-14T00:48:52.164Z,99302.63
2019-05-14T00:51:15.703Z,99302.41
2019-05-14T00:53:39.220Z,99299.27
2019-05-14T00:56:02.749Z,99301.05
2019-05-14T00:58:26.239Z,99301.25
2019-05-14T01:00:49.764Z,99301.66
2019-05-14T01:03:14.986Z,99301.42
2019-05-14T01:05:38.522Z,99311.48
2019-05-14T01:08:02.113Z,99305.95
2019-05-14T01:10:25.646Z,99301.44
2019-05-14T01:12:49.149Z,99299.89
2019-05-14T01:15:14.212Z,99298.95
2019-05-14T01:17:38.015Z,99306.03
2019-05-14T01:20:03.165Z,99299.87
2019-05-14T01:22:26.821Z,99305.95
2019-05-14T01:24:52.207Z,99298.19
2019-05-14T01:27:15.614Z,99292.21
2019-05-14T01:29:42.340Z,99292.53
2019-05-14T01:32:05.496Z,99283.95
2019-05-14T01:34:29.021Z,99286.17
2019-05-14T01:36:53.029Z,99284.73
2019-05-14T01:39:16.619Z,99284.03
2019-05-14T01:41:42.299Z,99278.65
2019-05-14T01:44:05.432Z,99275.62
2019-05-14T01:46:28.968Z,99281.88
2019-05-14T01:48:52.477Z,99273.12
2019-05-14T01:51:16.001Z,99274.88
2019-05-14T01:53:41.497Z,99272.26
2019-05-14T01:56:04.827Z,99265.69
2019-05-14T01:58:28.356Z,99269.64
2019-05-14T02:00:52.496Z,99269.02
2019-05-14T02:03:16.071Z,99265.28
2019-05-14T02:05:41.638Z,99269.23
2019-05-14T02:08:04.828Z,99263.13
2019-05-14T02:10:28.496Z,99267.19
2019-05-14T02:12:52.081Z,99265.26
2019-05-14T02:15:16.120Z,99261.10
2019-05-14T02:17:41.477Z,99264.83
2019-05-14T02:20:06.382Z,99265.18
2019-05-14T02:22:31.918Z,99264.83
2019-05-14T02:24:55.156Z,99265.44
2019-05-14T02:27:18.689Z,99257.13
2019-05-14T02:29:42.669Z,99263.70
2019-05-14T02:32:06.213Z,99254.41
2019-05-14T02:34:30.010Z,99252.77
2019-05-14T02:36:53.659Z,99256.16
2019-05-14T02:39:19.646Z,99251.56
2019-05-14T02:41:42.463Z,99253.59
2019-05-14T02:44:05.968Z,99264.26
2019-05-14T02:46:29.890Z,99256.54
2019-05-14T02:48:53.521Z,99253.36
2019-05-14T02:51:19.834Z,99254.10
2019-05-14T02:53:42.298Z,99254.31
2019-05-14T02:56:05.848Z,99247.98
2019-05-14T02:58:30.334Z,99256.92
2019-05-14T03:00:53.847Z,99249.59
2019-05-14T03:03:19.192Z,99250.16
2019-05-14T03:05:42.655Z,99255.05
2019-05-14T03:08:08.986Z,99249.53
2019-05-14T03:10:31.583Z,99255.48
2019-05-14T03:12:55.116Z,99245.80
2019-05-14T03:15:20.121Z,99250.89
2019-05-14T03:17:43.905Z,99252.05
2019-05-14T03:20:09.058Z,99248.92
2019-05-14T03:22:52.412Z,99251.88
2019-05-14T03:24:59.770Z,99253.66
2019-05-14T03:27:23.469Z,99248.08
2019-05-14T03:29:49.550Z,99254.27
2019-05-14T03:32:13.761Z,99248.67
2019-05-14T03:34:42.763Z,99244.72
2019-05-14T03:37:04.201Z,99249.23
2019-05-14T03:39:29.474Z,99244.31
2019-05-14T03:41:53.638Z,99245.87
2019-05-14T03:44:19.726Z,99251.41
2019-05-14T03:46:51.333Z,99252.98
2019-05-14T03:49:09.289Z,99252.63
2019-05-14T03:51:33.128Z,99247.39
2019-05-14T03:54:03.630Z,99234.69
2019-05-14T03:56:22.025Z,99234.52
2019-05-14T03:58:45.684Z,99238.11
2019-05-14T04:01:09.834Z,99231.36
2019-05-14T04:03:33.428Z,99233.33
2019-05-14T04:05:59.395Z,99240.81
2019-05-14T04:08:24.933Z,99239.99
2019-05-14T04:10:53.686Z,99235.19
2019-05-14T04:13:19.581Z,99238.14
2019-05-14T04:15:43.159Z,99236.70
2019-05-14T04:18:09.018Z,99239.41
2019-05-14T04:20:35.207Z,99242.33
2019-05-14T04:23:00.925Z,99235.55
2019-05-14T04:25:29.597Z,99237.28
2019-05-14T04:27:55.361Z,99234.45
2019-05-14T04:30:23.980Z,99233.55
2019-05-14T04:32:44.378Z,99242.00
2019-05-14T04:35:09.536Z,99240.75
2019-05-14T04:37:33.456Z,99244.38
2019-05-14T04:39:59.343Z,99251.34
2019-05-14T04:42:22.291Z,99244.89
2019-05-14T04:44:45.852Z,99241.22
2019-05-14T04:47:22.865Z,99239.97
2019-05-14T04:49:34.818Z,99247.91
2019-05-14T04:51:59.547Z,99244.24
2019-05-14T04:54:23.404Z,99249.68
2019-05-14T04:56:50.274Z,99251.33
2019-05-14T04:59:12.349Z,99243.98
2019-05-14T05:01:35.866Z,99238.26
2019-05-14T05:04:00.426Z,99235.08
2019-05-14T05:06:23.925Z,99233.84
2019-05-14T05:08:49.782Z,99232.35
2019-05-14T05:11:12.730Z,99234.06
2019-05-14T05:13:39.280Z,99224.53
2019-05-14T05:16:01.512Z,99229.98
2019-05-14T05:18:25.050Z,99229.41
2019-05-14T05:20:50.556Z,99233.28
2019-05-14T05:23:13.828Z,99227.73
2019-05-14T05:25:38.460Z,99236.86
2019-05-14T05:28:02.067Z,99229.05
2019-05-14T05:30:25.722Z,99231.23
2019-05-14T05:32:49.615Z,99232.87
2019-05-14T05:35:13.485Z,99235.84
2019-05-14T05:37:38.444Z,99240.45
2019-05-14T05:40:02.156Z,99234.62
2019-05-14T05:42:25.673Z,99234.19
2019-05-14T05:44:49.204Z,99231.02
2019-05-14T05:47:12.709Z,99233.20
2019-05-14T05:49:38.157Z,99224.16
2019-05-14T05:52:01.481Z,99223.13
2019-05-14T05:54:25.002Z,99232.45
2019-05-14T05:56:48.520Z,99224.32
2019-05-14T05:59:12.042Z,99222.44
2019-05-14T06:01:42.879Z,99228.64
2019-05-14T06:04:00.782Z,99218.20
2019-05-14T06:06:24.336Z,99221.48
2019-05-14T06:08:49.196Z,99229.67
2019-05-14T06:11:13.110Z,99223.16
2019-05-14T06:13:38.812Z,99227.73
2019-05-14T06:16:01.901Z,99219.42
2019-05-14T06:18:25.463Z,99219.56
2019-05-14T06:20:49.528Z,99216.78
2019-05-14T06:23:13.210Z,99215.25
2019-05-14T06:25:39.741Z,99208.30
2019-05-14T06:28:02.008Z,99208.86
2019-05-14T06:30:34.509Z,99203.61
2019-05-14T06:32:59.377Z,99204.06
2019-05-14T06:35:23.038Z,99208.59
2019-05-14T06:37:48.796Z,99202.42
2019-05-14T06:40:12.031Z,99204.73
2019-05-14T06:42:35.850Z,99202.54
2019-05-14T06:44:59.385Z,99205.58
2019-05-14T06:47:22.898Z,99201.53
2019-05-14T06:49:48.595Z,99197.22
2019-05-14T06:52:11.673Z,99194.95
2019-05-14T06:54:35.177Z,99192.02
2019-05-14T06:56:58.742Z,99187.94
2019-05-14T06:59:22.263Z,99203.04
2019-05-14T07:01:45.807Z,99198.03
2019-05-14T07:04:09.351Z,99193.52
2019-05-14T07:06:32.888Z,99197.70
2019-05-14T07:08:58.683Z,99190.73
2019-05-14T07:11:21.658Z,99198.33
2019-05-14T07:13:45.176Z,99195.84
2019-05-14T07:16:09.183Z,99198.36
2019-05-14T07:18:45.487Z,99197.75
2019-05-14T07:20:58.878Z,99197.27
2019-05-14T07:23:22.511Z,99188.78
2019-05-14T07:25:48.180Z,99190.55
2019-05-14T07:28:11.318Z,99186.13
2019-05-14T07:30:34.865Z,99189.91
2019-05-14T07:32:58.854Z,99188.31
2019-05-14T07:35:22.708Z,99171.83
2019-05-14T07:37:48.714Z,99173.31
2019-05-14T07:40:11.926Z,99170.69
2019-05-14T07:42:38.141Z,99178.13
2019-05-14T07:45:00.791Z,99175.47
2019-05-14T07:47:24.314Z,99169.11
2019-05-14T07:49:49.069Z,99173.95
2019-05-14T07:52:12.886Z,99168.52
2019-05-14T07:54:38.725Z,99162.73
2019-05-14T07:57:01.652Z,99161.26
2019-05-14T07:59:25.194Z,99168.73
2019-05-14T08:01:49.462Z,99179.37
2019-05-14T08:04:13.072Z,99182.32
2019-05-14T08:06:39.197Z,99186.13
2019-05-14T08:09:01.874Z,99182.57
2019-05-14T08:11:27.652Z,99170.84
2019-05-14T08:13:50.703Z,99175.96
2019-05-14T08:16:14.272Z,99158.59
2019-05-14T08:18:39.563Z,99155.55
2019-05-14T08:21:03.090Z,99150.38
2019-05-14T08:23:28.171Z,99150.19
2019-05-14T08:25:51.904Z,99142.09
2019-05-14T08:28:18.773Z,99141.34
2019-05-14T08:30:41.796Z,99132.86
2019-05-14T08:33:05.337Z,99132.73
2019-05-14T08:35:29.116Z,99131.33
2019-05-14T08:38:04.647Z,99139.57
2019-05-14T08:40:20.837Z,99132.77
2019-05-14T08:42:43.576Z,99155.44
2019-05-14T08:45:10.550Z,99136.56
2019-05-14T08:47:33.486Z,99127.45
2019-05-14T08:49:59.628Z,99126.52
2019-05-14T08:52:22.263Z,99126.15
2019-05-14T08:54:45.767Z,99115.73
2019-05-14T08:57:09.918Z,99127.09
2019-05-14T08:59:33.626Z,99116.06
2019-05-14T09:02:05.822Z,99115.75
2019-05-14T09:04:23.011Z,99116.98
2019-05-14T09:06:48.787Z,99116.84
2019-05-14T09:09:11.861Z,99111.73
2019-05-14T09:11:38.774Z,99114.22
2019-05-14T09:14:00.759Z,99120.00
2019-05-14T09:16:38.549Z,99104.14
2019-05-14T09:18:49.573Z,99116.23
2019-05-14T09:21:13.093Z,99109.30
2019-05-14T09:23:39.213Z,99118.68
2019-05-14T09:26:02.012Z,99113.42
2019-05-14T09:28:25.549Z,99107.78
2019-05-14T09:30:49.193Z,99115.30
2019-05-14T09:33:13.789Z,99095.14
2019-05-14T09:35:38.666Z,99102.29
2019-05-14T09:38:02.394Z,99093.91
2019-05-14T09:40:28.864Z,99091.89
2019-05-14T09:42:51.348Z,99093.99
2019-05-14T09:45:15.106Z,99078.38
2019-05-14T09:47:39.149Z,99073.98
2019-05-14T09:50:16.470Z,99086.77
2019-05-14T09:52:29.320Z,99087.81
2019-05-14T09:54:53.054Z,99078.69
2019-05-14T09:57:18.712Z,99070.34
2019-05-14T09:59:41.877Z,99072.13
2019-05-14T10:02:05.399Z,99065.72
2019-05-14T10:04:28.996Z,99083.92
2019-05-14T10:06:52.509Z,99074.81
2019-05-14T10:09:16.179Z,99088.32
2019-05-14T10:11:39.917Z,99079.27
2019-05-14T10:14:04.616Z,99076.42
2019-05-14T10:16:29.073Z,99074.21
2019-05-14T10:18:53.090Z,99083.50
2019-05-14T10:21:19.037Z,99072.21
2019-05-14T10:23:41.918Z,99060.77
2019-05-14T10:26:05.515Z,99046.89
2019-05-14T10:28:29.061Z,99062.26
2019-05-14T10:30:52.560Z,99068.33
2019-05-14T10:33:18.119Z,99060.86
2019-05-14T10:35:41.755Z,99064.92
2019-05-14T10:38:05.318Z,99076.55
2019-05-14T10:40:29.323Z,99071.18
2019-05-14T10:42:52.906Z,99060.83
2019-05-14T10:45:18.644Z,99065.16
2019-05-14T10:47:42.271Z,99054.17
2019-05-14T10:50:13.714Z,99040.01
2019-05-14T10:52:34.585Z,99033.97
2019-05-14T10:54:59.063Z,99048.03
2019-05-14T10:57:23.759Z,99053.22
2019-05-14T10:59:47.333Z,99054.22
2019-05-14T11:02:11.893Z,99048.35
2019-05-14T11:04:35.731Z,99047.28
2019-05-14T11:06:59.244Z,99044.85
2019-05-14T11:09:22.930Z,99038.07
2019-05-14T11:11:46.446Z,99022.84
2019-05-14T11:14:10.097Z,99026.40
2019-05-14T11:16:33.609Z,99024.77
2019-05-14T11:18:57.740Z,99032.56
2019-05-14T11:21:26.499Z,99039.75
2019-05-14T11:23:49.042Z,99041.56
2019-05-14T11:26:12.152Z,99038.17
2019-05-14T11:28:35.652Z,99024.00
2019-05-14T11:30:59.186Z,99017.86
2019-05-14T11:33:22.757Z,98999.52
2019-05-14T11:35:46.272Z,98996.61
2019-05-14T11:38:28.078Z,98988.69
2019-05-14T11:40:35.061Z,99000.83
2019-05-14T11:42:59.274Z,99012.72
2019-05-14T11:45:23.232Z,99016.09
2019-05-14T11:47:48.809Z,99011.48
2019-05-14T11:50:12.687Z,99000.05
2019-05-14T11:52:36.182Z,99007.88
2019-05-14T11:54:59.716Z,99014.77
2019-05-14T11:57:23.239Z,99011.56
2019-05-14T11:59:46.774Z,99002.13
2019-05-14T12:02:10.358Z,98998.20
2019-05-14T12:04:33.900Z,99000.16
2019-05-14T12:06:59.062Z,98996.60
2019-05-14T12:09:22.733Z,98991.19
2019-05-14T12:11:46.255Z,98991.24
2019-05-14T12:14:09.799Z,98985.55
2019-05-14T12:16:33.309Z,98982.28
2019-05-14T12:18:58.949Z,98973.45
2019-05-14T12:21:22.365Z,98986.27
2019-05-14T12:23:47.121Z,98991.41
2019-05-14T12:26:10.675Z,98981.55
2019-05-14T12:28:34.172Z,98972.84
2019-05-14T12:30:58.359Z,98973.75
2019-05-14T12:33:22.015Z,98974.38
2019-05-14T12:35:45.614Z,98959.48
2019-05-14T12:38:10.041Z,98953.71
2019-05-14T12:40:33.756Z,98949.28
2019-05-14T12:42:59.213Z,98933.34
2019-05-14T12:45:22.909Z,98940.97
2019-05-14T12:47:49.827Z,98939.95
2019-05-14T12:50:12.921Z,98943.31
2019-05-14T12:52:38.785Z,98975.83
2019-05-14T12:55:01.844Z,98978.06
2019-05-14T12:57:25.376Z,98971.37
2019-05-14T12:59:48.946Z,98967.56
2019-05-14T13:02:12.461Z,98956.63
2019-05-14T13:04:36.003Z,98948.06
2019-05-14T13:06:59.913Z,98937.06
2019-05-14T13:09:23.428Z,98923.20
2019-05-14T13:11:48.051Z,98929.12
2019-05-14T13:14:11.597Z,98923.72
2019-05-14T13:16:35.148Z,98921.09
2019-05-14T13:18:59.788Z,98907.84
2019-05-14T13:21:23.602Z,98914.09
2019-05-14T13:23:48.721Z,98907.62
2019-05-14T13:26:12.706Z,98914.41
2019-05-14T13:28:36.221Z,98909.59
2019-05-14T13:30:59.833Z,98913.88
2019-05-14T13:33:23.371Z,98914.73
2019-05-14T13:35:48.423Z,98920.82
2019-05-14T13:38:14.315Z,98916.38
2019-05-14T13:40:39.225Z,98914.78
2019-05-14T13:43:02.495Z,98913.27
2019-05-14T13:45:26.159Z,98918.37
2019-05-14T13:47:49.751Z,98901.27
2019-05-14T13:50:13.624Z,98887.59
2019-05-14T13:52:40.397Z,98876.82
2019-05-14T13:55:02.507Z,98853.70
2019-05-14T13:57:28.546Z,98856.63
2019-05-14T13:59:51.339Z,98861.00
2019-05-14T14:02:14.900Z,98860.15
2019-05-14T14:04:38.411Z,98853.40
2019-05-14T14:07:01.973Z,98852.45
2019-05-14T14:09:25.507Z,98863.90
2019-05-14T14:11:49.118Z,98864.20
2019-05-14T14:14:12.650Z,98857.70
2019-05-14T14:16:36.204Z,98855.25
2019-05-14T14:19:03.600Z,98843.03
2019-05-14T14:21:25.019Z,98843.70
2019-05-14T14:23:49.426Z,98828.86
2019-05-14T14:26:13.462Z,98827.02
2019-05-14T14:28:39.577Z,98822.47
2019-05-14T14:31:02.346Z,98822.33
2019-05-14T14:33:28.715Z,98837.84
2019-05-14T14:35:51.177Z,98856.70
2019-05-14T14:38:14.710Z,98856.38
2019-05-14T14:40:39.619Z,98859.11
2019-05-14T14:43:03.327Z,98850.73
2019-05-14T14:45:29.312Z,98845.76
2019-05-14T14:47:53.106Z,98843.12
2019-05-14T14:50:19.211Z,98852.09
2019-05-14T14:52:42.005Z,98841.39
2019-05-14T14:55:07.143Z,98842.78
2019-05-14T14:57:30.722Z,98859.14
2019-05-14T14:59:56.206Z,98857.67
2019-05-14T15:02:19.915Z,98856.89
2019-05-14T15:04:43.529Z,98850.25
2019-05-14T15:07:09.661Z,98836.20
2019-05-14T15:09:32.320Z,98843.05
2019-05-14T15:11:56.421Z,98849.39
2019-05-14T15:14:20.462Z,98826.54
2019-05-14T15:16:44.199Z,98831.25
2019-05-14T15:19:09.402Z,98824.22
2019-05-14T15:21:33.370Z,98816.53
2019-05-14T15:24:07.121Z,98827.36
2019-05-14T15:26:22.929Z,98836.77
2019-05-14T15:28:49.219Z,98840.34
2019-05-14T15:31:12.786Z,98847.29
2019-05-14T15:33:36.353Z,98852.27
2019-05-14T15:35:59.850Z,98852.12
2019-05-14T15:38:23.676Z,98848.35
2019-05-14T15:40:48.926Z,98836.06
2019-05-14T15:43:12.608Z,98842.48
2019-05-14T15:45:37.899Z,98833.49
2019-05-14T15:48:03.853Z,98829.48
2019-05-14T15:50:29.251Z,98830.75
2019-05-14T15:52:52.061Z,98829.59
2019-05-14T15:55:18.171Z,98828.05
2019-05-14T15:57:40.986Z,98818.17
2019-05-14T16:00:08.687Z,98817.19
2019-05-14T16:02:31.514Z,98805.34
2019-05-14T16:04:55.031Z,98804.80
2019-05-14T16:07:18.733Z,98794.95
2019-05-14T16:09:42.265Z,98803.48
2019-05-14T16:12:05.932Z,98800.30
2019-05-14T16:14:30.143Z,98801.77
2019-05-14T16:16:53.791Z,98799.84
2019-05-14T16:19:19.031Z,98801.49
2019-05-14T16:21:42.849Z,98812.92
2019-05-14T16:24:08.334Z,98820.84
2019-05-14T16:26:31.626Z,98826.86
2019-05-14T16:28:55.234Z,98847.45
2019-05-14T16:31:18.817Z,98863.63
2019-05-14T16:33:42.359Z,98871.20
2019-05-14T16:36:05.874Z,98874.91
2019-05-14T16:38:29.490Z,98886.33
2019-05-14T16:40:52.945Z,98881.78
2019-05-14T16:43:18.991Z,98878.63
2019-05-14T16:45:41.812Z,98875.20
2019-05-14T16:48:05.377Z,98867.65
2019-05-14T16:50:28.978Z,98870.77
2019-05-14T16:52:52.529Z,98869.83
2019-05-14T16:55:24.597Z,98864.38
2019-05-14T16:57:41.637Z,98862.67
2019-05-14T17:00:09.687Z,98856.17
2019-05-14T17:02:33.420Z,98844.53
2019-05-14T17:04:58.923Z,98842.77
2019-05-14T17:07:22.196Z,98832.16
2019-05-14T17:09:45.743Z,98830.45
2019-05-14T17:12:09.275Z,98834.38
2019-05-14T17:14:32.853Z,98838.73
2019-05-14T17:16:56.362Z,98841.98
2019-05-14T17:19:19.900Z,98848.70
2019-05-14T17:21:43.451Z,98840.98
2019-05-14T17:24:08.701Z,98841.06
2019-05-14T17:26:32.425Z,98835.67
2019-05-14T17:28:55.991Z,98827.17
2019-05-14T17:31:19.471Z,98832.70
2019-05-14T17:33:44.377Z,98840.34
2019-05-14T17:36:09.696Z,98826.03
2019-05-14T17:38:33.102Z,98841.42
2019-05-14T17:40:59.497Z,98838.11
2019-05-14T17:43:23.244Z,98845.67
2019-05-14T17:45:48.213Z,98843.70
2019-05-14T17:48:12.150Z,98832.66
2019-05-14T17:50:38.217Z,98838.27
2019-05-14T17:53:01.186Z,98837.98
2019-05-14T17:55:28.133Z,98834.30
2019-05-14T17:57:57.946Z,98829.65
2019-05-14T18:00:18.182Z,98836.91
2019-05-14T18:02:41.773Z,98829.03
2019-05-14T18:05:09.059Z,98814.82
2019-05-14T18:07:31.521Z,98825.38
2019-05-14T18:09:55.243Z,98834.69
2019-05-14T18:12:19.409Z,98824.64
2019-05-14T18:14:43.259Z,98828.97
2019-05-14T18:17:08.799Z,98830.52
2019-05-14T18:19:32.097Z,98828.78
2019-05-14T18:21:55.707Z,98834.02
2019-05-14T18:24:19.330Z,98841.38
2019-05-14T18:26:43.129Z,98839.08
2019-05-14T18:29:08.788Z,98839.34
2019-05-14T18:31:32.165Z,98842.98
2019-05-14T18:33:55.709Z,98841.17
2019-05-14T18:36:19.419Z,98838.59
2019-05-14T18:38:43.124Z,98852.68
2019-05-14T18:41:08.468Z,98840.44
2019-05-14T18:43:32.434Z,98847.92
2019-05-14T18:45:56.042Z,98844.23
2019-05-14T18:48:20.292Z,98847.87
2019-05-14T18:50:44.802Z,98839.55
2019-05-14T18:53:09.900Z,98837.66
2019-05-14T18:55:33.728Z,98834.23
2019-05-14T18:57:59.343Z,98832.08
2019-05-14T19:00:23.006Z,98834.41
2019-05-14T19:02:48.184Z,98832.00
2019-05-14T19:05:12.450Z,98833.19
2019-05-14T19:07:35.984Z,98831.06
2019-05-14T19:09:59.490Z,98831.50
2019-05-14T19:12:23.019Z,98834.37
2019-05-14T19:14:49.025Z,98832.16
2019-05-14T19:17:11.907Z,98832.41
2019-05-14T19:19:35.423Z,98824.55
2019-05-14T19:21:59.023Z,98833.09
2019-05-14T19:24:23.511Z,98833.00
2019-05-14T19:26:49.423Z,98829.59
2019-05-14T19:29:12.303Z,98839.25
2019-05-14T19:31:35.836Z,98840.20
2019-05-14T19:33:59.342Z,98839.91
2019-05-14T19:36:22.871Z,98838.76
2019-05-14T19:38:48.177Z,98835.75
2019-05-14T19:41:11.864Z,98837.99
2019-05-14T19:43:35.390Z,98840.77
2019-05-14T19:45:59.926Z,98833.28
2019-05-14T19:48:23.443Z,98837.38
2019-05-14T19:50:49.126Z,98824.09
2019-05-14T19:53:12.222Z,98832.42
2019-05-14T19:55:35.742Z,98830.89
2019-05-14T19:57:59.266Z,98832.97
2019-05-14T20:00:28.587Z,98832.38
2019-05-14T20:02:51.630Z,98831.62
2019-05-14T20:05:19.102Z,98829.48
2019-05-14T20:07:42.373Z,98833.83
2019-05-14T20:10:08.667Z,98823.34
2019-05-14T20:12:31.973Z,98827.66
2019-05-14T20:14:55.492Z,98834.16
2019-05-14T20:17:19.498Z,98833.08
2019-05-14T20:19:46.435Z,98829.20
2019-05-14T20:22:08.501Z,98829.80
2019-05-14T20:24:31.973Z,98832.30
2019-05-14T20:27:05.906Z,98831.76
2019-05-14T20:29:22.044Z,98827.34
2019-05-14T20:31:45.554Z,98823.08
2019-05-14T20:34:09.258Z,98823.72
2019-05-14T20:36:33.009Z,98826.42
2019-05-14T20:38:58.784Z,98822.59
2019-05-14T20:41:22.035Z,98822.00
2019-05-14T20:43:47.855Z,98822.80
2019-05-14T20:46:11.797Z,98819.86
2019-05-14T20:48:35.408Z,98823.42
2019-05-14T20:50:58.961Z,98823.64
2019-05-14T20:53:22.578Z,98821.89
2019-05-14T20:55:46.164Z,98821.64
2019-05-14T20:58:09.701Z,98816.10
2019-05-14T21:00:33.223Z,98822.37
2019-05-14T21:02:59.213Z,98825.39
2019-05-14T21:05:22.148Z,98821.90
2019-05-14T21:07:49.321Z,98827.44
2019-05-14T21:10:12.708Z,98812.22
2019-05-14T21:12:36.243Z,98814.61
2019-05-14T21:14:59.758Z,98820.67
2019-05-14T21:17:23.267Z,98816.68
2019-05-14T21:19:49.019Z,98809.82
2019-05-14T21:22:12.060Z,98807.75
2019-05-14T21:24:35.603Z,98806.84
2019-05-14T21:26:59.139Z,98810.06
2019-05-14T21:29:22.735Z,98811.83
2019-05-14T21:31:46.520Z,98807.81
2019-05-14T21:34:10.057Z,98807.77
2019-05-14T21:36:33.731Z,98801.91
2019-05-14T21:38:58.629Z,98798.77
2019-05-14T21:41:22.539Z,98794.63
2019-05-14T21:43:46.152Z,98794.55
2019-05-14T21:46:09.790Z,98797.30
2019-05-14T21:48:33.590Z,98785.18
2019-05-14T21:51:00.502Z,98789.75
2019-05-14T21:53:22.405Z,98785.61
2019-05-14T21:55:47.881Z,98785.98
2019-05-14T21:58:11.927Z,98785.70
2019-05-14T22:00:42.542Z,98789.78
2019-05-14T22:03:06.214Z,98791.13
2019-05-14T22:05:29.795Z,98791.88
2019-05-14T22:07:53.371Z,98794.19
2019-05-14T22:10:19.069Z,98791.87
2019-05-14T22:12:42.393Z,98785.16
2019-05-14T22:15:08.556Z,98790.34
2019-05-14T22:17:32.148Z,98781.55
2019-05-14T22:19:55.684Z,98784.91
2019-05-14T22:22:19.189Z,98785.16
2019-05-14T22:24:42.726Z,98783.89
2019-05-14T22:27:06.219Z,98785.61
2019-05-14T22:29:29.859Z,98778.30
2019-05-14T22:31:53.654Z,98782.64
2019-05-14T22:34:18.425Z,98781.94
2019-05-14T22:36:42.056Z,98776.23
2019-05-14T22:39:06.518Z,98778.23
2019-05-14T22:41:30.050Z,98778.00
2019-05-14T22:43:56.716Z,98772.68
2019-05-14T22:46:18.898Z,98768.86
2019-05-14T22:48:42.413Z,98765.60
2019-05-14T22:51:05.960Z,98769.72
2019-05-14T22:53:30.480Z,98764.63
2019-05-14T22:55:54.169Z,98763.31
2019-05-14T22:58:25.678Z,98770.71
2019-05-14T23:00:47.023Z,98764.41
2019-05-14T23:03:08.188Z,98760.69
2019-05-14T23:05:31.729Z,98762.06
2019-05-14T23:07:55.228Z,98763.83
2019-05-14T23:10:18.832Z,98762.24
2019-05-14T23:12:42.351Z,98753.92
2019-05-14T23:15:09.352Z,98751.95
2019-05-14T23:17:32.852Z,98759.83
2019-05-14T23:19:58.052Z,98769.09
2019-05-14T23:22:21.773Z,98760.93
2019-05-14T23:24:45.299Z,98764.90
2019-05-14T23:27:08.800Z,98762.63
2019-05-14T23:29:32.379Z,98761.27
2019-05-14T23:31:56.043Z,98761.52
2019-05-14T23:34:19.552Z,98757.00
2019-05-14T23:36:43.140Z,98759.59
2019-05-14T23:39:08.746Z,98763.05
2019-05-14T23:41:32.522Z,98754.20
2019-05-14T23:43:56.031Z,98761.59
2019-05-14T23:46:19.570Z,98757.45
2019-05-14T23:48:43.117Z,98752.44
2019-05-14T23:51:08.126Z,98758.23
2019-05-14T23:53:31.736Z,98748.38
2019-05-14T23:55:55.269Z,98747.21
2019-05-14T23:58:20.503Z,98746.38
